Time;durP1;ratioP1;P1;durP2;ratioP2;P2;SDS_P1;SDS_P2;PMS_P1;PMS_P2;Temp;Humidity;BMP_temperature;BMP_pressure;BME280_temperature;BME280_humidity;BME280_pressure;Samples;Min_cycle;Max_cycle;Signal;HPM_P1;HPM_P2
2022/10/09 00:00:09;;;;;;;21.15;10.73;;;;;;;3.74;100.00;102536.53;5286342;28;20272;-71
2022/10/09 00:02:39;;;;;;;21.50;10.50;;;;;;;3.74;100.00;102536.53;5280911;28;20077;-71
2022/10/09 00:05:10;;;;;;;19.35;9.80;;;;;;;3.72;100.00;102535.75;5278431;28;20020;-70
2022/10/09 00:07:40;;;;;;;19.88;10.55;;;;;;;3.71;100.00;102530.50;5265462;28;20020;-70
2022/10/09 00:10:11;;;;;;;18.35;8.68;;;;;;;3.68;100.00;102520.06;5260838;28;20084;-70
2022/10/09 00:12:41;;;;;;;18.00;9.43;;;;;;;3.63;100.00;102529.13;5265789;28;20039;-70
2022/10/09 00:15:12;;;;;;;20.15;9.80;;;;;;;3.60;100.00;102528.41;5278659;28;20035;-71
2022/10/09 00:17:43;;;;;;;79.05;13.98;;;;;;;3.58;100.00;102522.34;5279907;28;20084;-71
2022/10/09 00:20:14;;;;;;;111.20;15.60;;;;;;;3.55;100.00;102522.50;5278686;28;20546;-71
2022/10/09 00:22:44;;;;;;;18.13;9.82;;;;;;;3.51;100.00;102523.59;5263921;28;20031;-70
2022/10/09 00:25:14;;;;;;;16.92;9.52;;;;;;;3.46;100.00;102525.63;5273632;28;20088;-72
2022/10/09 00:27:45;;;;;;;27.65;10.93;;;;;;;3.42;100.00;102516.13;5265325;28;20072;-71
2022/10/09 00:30:15;;;;;;;37.35;10.63;;;;;;;3.40;100.00;102518.84;5275196;28;20450;-71
2022/10/09 00:32:46;;;;;;;25.23;9.10;;;;;;;3.43;100.00;102520.47;5269357;28;20396;-70
2022/10/09 00:35:16;;;;;;;28.33;10.88;;;;;;;3.42;100.00;102516.13;5273135;28;20086;-71
2022/10/09 00:37:47;;;;;;;17.88;9.30;;;;;;;3.39;100.00;102519.78;5264613;28;20024;-71
2022/10/09 00:40:18;;;;;;;19.67;9.90;;;;;;;3.37;100.00;102519.00;5251498;28;20082;-71
2022/10/09 00:42:54;;;;;;;22.63;10.98;;;;;;;3.34;100.00;102512.06;5261977;28;20079;-71
2022/10/09 00:45:26;;;;;;;28.00;11.35;;;;;;;3.32;100.00;102513.94;5268625;28;20016;-71
2022/10/09 00:48:00;;;;;;;18.98;10.20;;;;;;;3.30;100.00;102514.94;5274652;28;20409;-70
2022/10/09 00:51:03;;;;;;;20.05;9.65;;;;;;;3.28;100.00;102508.88;5285585;28;20022;-71
2022/10/09 00:53:34;;;;;;;13.32;9.32;;;;;;;3.28;100.00;102519.47;5262332;28;20040;-71
2022/10/09 00:56:04;;;;;;;14.60;8.32;;;;;;;3.25;100.00;102520.47;5284668;28;20035;-71
2022/10/09 00:58:35;;;;;;;23.35;8.52;;;;;;;3.23;100.00;102514.41;5268124;28;20519;-71
2022/10/09 01:01:05;;;;;;;16.27;8.73;;;;;;;3.21;100.00;102518.06;5263633;28;20024;-71
2022/10/09 01:03:36;;;;;;;19.27;8.93;;;;;;;3.18;100.00;102516.44;5261328;28;20024;-72
2022/10/09 01:06:17;;;;;;;18.40;9.48;;;;;;;3.16;100.00;102507.69;5264115;28;20093;-72
2022/10/09 01:09:12;;;;;;;15.35;8.23;;;;;;;3.13;100.00;102517.59;5264966;28;20115;-72
2022/10/09 01:11:55;;;;;;;15.60;9.73;;;;;;;3.10;100.00;102513.28;5265157;28;20028;-71
2022/10/09 01:14:30;;;;;;;19.80;10.07;;;;;;;3.08;100.00;102518.69;5264578;28;20036;-70
2022/10/09 01:17:32;;;;;;;22.92;10.68;;;;;;;3.05;100.00;102518.81;5285861;28;20185;-71
2022/10/09 01:20:25;;;;;;;28.83;10.82;;;;;;;3.03;100.00;102509.25;5279135;28;20024;-72
2022/10/09 01:23:19;;;;;;;167.93;16.55;;;;;;;2.96;100.00;102511.38;5281721;28;20027;-72
2022/10/09 01:26:22;;;;;;;20.33;10.52;;;;;;;2.91;100.00;102509.84;5283280;28;20020;-72
2022/10/09 01:29:00;;;;;;;18.00;9.05;;;;;;;2.88;100.00;102507.38;5257650;28;20020;-72
2022/10/09 01:31:34;;;;;;;19.77;10.13;;;;;;;2.88;100.00;102504.72;5264552;28;20024;-71
2022/10/09 01:34:06;;;;;;;24.98;9.93;;;;;;;2.88;100.00;102507.38;5268220;28;20040;-72
2022/10/09 01:36:39;;;;;;;15.82;8.55;;;;;;;2.87;100.00;102501.22;5268342;27;20102;-72
2022/10/09 01:39:15;;;;;;;21.55;9.90;;;;;;;2.87;100.00;102495.06;5264496;28;20052;-72
2022/10/09 01:41:49;;;;;;;19.00;10.00;;;;;;;2.89;100.00;102495.81;5259836;28;20024;-71
2022/10/09 01:44:26;;;;;;;18.90;9.00;;;;;;;2.88;100.00;102488.81;5267679;28;20028;-71
2022/10/09 01:46:58;;;;;;;21.90;9.75;;;;;;;2.88;100.00;102487.00;5281860;28;20023;-72
2022/10/09 01:49:39;;;;;;;21.15;9.55;;;;;;;2.84;100.00;102486.28;5268238;28;20020;-71
2022/10/09 01:52:20;;;;;;;16.15;8.82;;;;;;;2.80;100.00;102479.44;5273646;28;20054;-72
2022/10/09 01:54:53;;;;;;;14.15;8.57;;;;;;;2.77;100.00;102474.28;5288623;28;20110;-72
2022/10/09 01:57:51;;;;;;;15.27;8.68;;;;;;;2.75;100.00;102470.84;5288990;28;20031;-70
2022/10/09 02:00:22;;;;;;;14.35;8.73;;;;;;;2.74;100.00;102465.63;5257511;28;20035;-71
2022/10/09 02:02:54;;;;;;;16.85;8.40;;;;;;;2.70;100.00;102462.25;5268049;28;20032;-72
2022/10/09 02:05:29;;;;;;;18.38;9.30;;;;;;;2.69;100.00;102462.34;5261084;28;20377;-72
2022/10/09 02:08:00;;;;;;;17.40;9.15;;;;;;;2.69;100.00;102454.41;5286982;27;20054;-71
2022/10/09 02:10:33;;;;;;;17.35;8.13;;;;;;;2.67;100.00;102454.50;5276795;28;20019;-71
2022/10/09 02:13:04;;;;;;;15.52;8.55;;;;;;;2.66;100.00;102452.78;5269826;28;20058;-71
2022/10/09 02:15:51;;;;;;;21.98;9.10;;;;;;;2.67;100.00;102443.88;5277980;28;20039;-71
2022/10/09 02:18:35;;;;;;;21.67;10.13;;;;;;;2.69;100.00;102444.66;5274928;28;20024;-71
2022/10/09 02:21:11;;;;;;;19.50;8.68;;;;;;;2.70;100.00;102450.81;5288412;28;20106;-71
2022/10/09 02:23:46;;;;;;;17.95;7.45;;;;;;;2.67;100.00;102450.97;5277520;28;20024;-70
2022/10/09 02:26:18;;;;;;;16.25;7.68;;;;;;;2.63;100.00;102441.47;5280492;28;20104;-71
2022/10/09 02:28:49;;;;;;;17.52;8.80;;;;;;;2.64;100.00;102445.81;5280116;28;20019;-71
2022/10/09 02:31:24;;;;;;;14.05;8.35;;;;;;;2.63;100.00;102452.91;5267570;28;20030;-70
2022/10/09 02:33:56;;;;;;;21.45;9.02;;;;;;;2.62;100.00;102437.97;5280446;28;20156;-70
2022/10/09 02:36:27;;;;;;;15.95;8.38;;;;;;;2.61;100.00;102436.25;5266399;28;20027;-70
2022/10/09 02:38:58;;;;;;;15.20;8.30;;;;;;;2.60;100.00;102435.38;5267229;28;20389;-70
2022/10/09 02:41:29;;;;;;;18.05;8.70;;;;;;;2.59;100.00;102430.16;5264226;28;20193;-70
2022/10/09 02:44:00;;;;;;;13.00;6.85;;;;;;;2.58;100.00;102444.34;5271075;28;20038;-70
2022/10/09 02:46:31;;;;;;;147.10;12.23;;;;;;;2.52;100.00;102432.25;5274689;28;20398;-70
2022/10/09 02:49:01;;;;;;;89.20;10.40;;;;;;;2.44;100.00;102428.25;5266745;28;20028;-70
2022/10/09 02:51:32;;;;;;;49.13;8.15;;;;;;;2.37;100.00;102429.50;5278764;28;20532;-70
2022/10/09 02:54:03;;;;;;;21.23;7.10;;;;;;;2.31;100.00;102430.66;5287066;28;20385;-71
2022/10/09 02:56:34;;;;;;;46.92;9.68;;;;;;;2.24;100.00;102424.78;5286983;28;20024;-71
2022/10/09 02:59:05;;;;;;;14.68;7.60;;;;;;;2.21;100.00;102438.19;5266379;28;20393;-70
2022/10/09 03:01:35;;;;;;;18.85;9.38;;;;;;;2.18;100.00;102440.97;5266559;28;20474;-71
2022/10/09 03:04:06;;;;;;;53.67;12.50;;;;;;;2.16;100.00;102432.25;5257765;28;20028;-70
2022/10/09 03:06:36;;;;;;;23.10;9.82;;;;;;;2.16;100.00;102440.19;5266204;28;20019;-70
2022/10/09 03:09:07;;;;;;;19.80;9.63;;;;;;;2.17;100.00;102441.06;5266129;28;20020;-70
2022/10/09 03:11:37;;;;;;;17.67;9.30;;;;;;;2.19;100.00;102449.78;5266080;28;20052;-70
2022/10/09 03:14:08;;;;;;;18.25;7.97;;;;;;;2.18;100.00;102435.69;5278063;28;20086;-70
2022/10/09 03:16:39;;;;;;;14.82;7.45;;;;;;;2.15;100.00;102429.66;5287531;28;20028;-70
2022/10/09 03:19:09;;;;;;;15.05;7.97;;;;;;;2.12;100.00;102435.13;5287290;28;20023;-70
2022/10/09 03:21:40;;;;;;;14.60;7.43;;;;;;;2.11;100.00;102436.91;5279207;28;20051;-70
2022/10/09 03:24:11;;;;;;;13.02;7.10;;;;;;;2.09;100.00;102430.81;5280056;28;20031;-70
2022/10/09 03:26:41;;;;;;;16.08;9.60;;;;;;;2.06;100.00;102434.47;5283735;28;20047;-71
2022/10/09 03:29:12;;;;;;;18.40;7.57;;;;;;;2.04;100.00;102430.16;5261046;28;20028;-70
2022/10/09 03:31:42;;;;;;;16.38;8.50;;;;;;;2.02;100.00;102432.91;5266171;28;20559;-70
2022/10/09 03:34:13;;;;;;;16.38;9.68;;;;;;;2.04;100.00;102428.38;5264427;28;20115;-71
2022/10/09 03:36:43;;;;;;;21.25;9.68;;;;;;;2.06;100.00;102433.63;5277225;28;20389;-70
2022/10/09 03:39:14;;;;;;;17.55;9.52;;;;;;;2.06;100.00;102428.31;5263952;28;20031;-70
2022/10/09 03:41:44;;;;;;;19.48;9.45;;;;;;;2.06;100.00;102429.19;5247427;28;20032;-70
2022/10/09 03:44:15;;;;;;;20.98;9.00;;;;;;;2.04;100.00;102425.72;5270173;28;20107;-70
2022/10/09 03:46:47;;;;;;;20.38;9.05;;;;;;;2.03;100.00;102423.16;5286671;28;20027;-71
2022/10/09 03:49:17;;;;;;;20.00;8.18;;;;;;;2.01;100.00;102415.31;5286806;28;20028;-71
2022/10/09 03:51:48;;;;;;;19.05;9.32;;;;;;;2.02;100.00;102418.81;5271951;28;20508;-71
2022/10/09 03:54:18;;;;;;;16.38;7.82;;;;;;;1.99;100.00;102425.09;5265280;28;20087;-71
2022/10/09 03:56:49;;;;;;;14.05;7.72;;;;;;;1.99;100.00;102424.25;5268248;28;20485;-70
2022/10/09 03:59:19;;;;;;;16.75;8.43;;;;;;;2.01;100.00;102425.91;5275953;28;20059;-70
2022/10/09 04:01:50;;;;;;;16.95;8.70;;;;;;;2.02;100.00;102421.47;5265610;28;20026;-71
2022/10/09 04:04:21;;;;;;;18.23;8.93;;;;;;;1.99;100.00;102418.94;5268356;28;20063;-71
2022/10/09 04:06:51;;;;;;;16.52;8.90;;;;;;;1.94;100.00;102413.88;5272999;28;20019;-71
2022/10/09 04:09:21;;;;;;;23.65;9.52;;;;;;;1.91;100.00;102413.16;5274135;28;20080;-71
2022/10/09 04:11:52;;;;;;;16.85;9.18;;;;;;;1.89;100.00;102425.59;5271524;28;20027;-71
2022/10/09 04:14:22;;;;;;;13.30;7.07;;;;;;;1.87;100.00;102414.25;5272218;28;20095;-70
2022/10/09 04:16:53;;;;;;;18.27;7.38;;;;;;;1.82;100.00;102414.44;5273345;28;20034;-71
2022/10/09 04:19:23;;;;;;;8.00;6.35;;;;;;;1.78;100.00;102419.03;5286634;28;20030;-70
2022/10/09 04:21:54;;;;;;;10.45;6.45;;;;;;;1.76;100.00;102409.44;5277507;28;20028;-69
2022/10/09 04:24:24;;;;;;;11.80;7.20;;;;;;;1.74;100.00;102411.28;5264410;28;20032;-70
2022/10/09 04:26:55;;;;;;;15.40;7.68;;;;;;;1.72;100.00;102413.16;5268777;28;20523;-70
2022/10/09 04:29:26;;;;;;;72.63;11.45;;;;;;;1.68;100.00;102411.59;5276347;28;20027;-70
2022/10/09 04:31:56;;;;;;;20.95;8.48;;;;;;;1.63;100.00;102406.50;5265759;28;20486;-70
2022/10/09 04:34:27;;;;;;;23.17;7.68;;;;;;;1.61;100.00;102410.13;5279933;28;20392;-71
2022/10/09 04:36:57;;;;;;;17.55;7.38;;;;;;;1.58;100.00;102410.28;5278871;28;20027;-70
2022/10/09 04:39:28;;;;;;;105.25;10.63;;;;;;;1.55;100.00;102403.34;5258492;28;20490;-70
2022/10/09 04:41:58;;;;;;;19.92;7.55;;;;;;;1.52;100.00;102403.50;5247325;28;20478;-70
2022/10/09 04:44:29;;;;;;;18.83;7.78;;;;;;;1.49;100.00;102399.19;5272572;28;20106;-71
2022/10/09 04:46:59;;;;;;;21.48;8.90;;;;;;;1.49;100.00;102393.91;5286029;28;20438;-71
2022/10/09 04:49:30;;;;;;;19.73;8.40;;;;;;;1.50;100.00;102392.97;5276740;27;20024;-70
2022/10/09 04:52:00;;;;;;;19.10;8.32;;;;;;;1.51;100.00;102391.22;5278471;28;20382;-70
2022/10/09 04:54:30;;;;;;;17.45;8.27;;;;;;;1.52;100.00;102387.63;5275540;28;20434;-70
2022/10/09 04:57:01;;;;;;;17.27;9.40;;;;;;;1.53;100.00;102384.03;5285979;28;20538;-69
2022/10/09 04:59:31;;;;;;;22.60;10.07;;;;;;;1.55;100.00;102382.19;5286416;28;20533;-69
2022/10/09 05:02:02;;;;;;;23.33;10.00;;;;;;;1.55;100.00;102376.88;5270303;28;20114;-69
2022/10/09 05:04:33;;;;;;;20.40;9.90;;;;;;;1.58;100.00;102378.56;5269934;28;20059;-69
2022/10/09 05:07:03;;;;;;;16.75;8.98;;;;;;;1.57;100.00;102380.34;5265073;28;20103;-69
2022/10/09 05:09:34;;;;;;;17.40;9.07;;;;;;;1.58;100.00;102381.19;5263594;28;20100;-69
2022/10/09 05:12:04;;;;;;;23.85;9.82;;;;;;;1.59;100.00;102378.47;5281968;27;20062;-69
2022/10/09 05:14:35;;;;;;;17.48;8.32;;;;;;;1.60;100.00;102374.88;5283317;28;20024;-70
2022/10/09 05:17:06;;;;;;;30.33;10.50;;;;;;;1.58;100.00;102379.41;5281117;28;20031;-69
2022/10/09 05:19:36;;;;;;;24.92;10.95;;;;;;;1.59;100.00;102375.81;5268845;28;20076;-69
2022/10/09 05:22:07;;;;;;;18.90;9.90;;;;;;;1.60;100.00;102368.75;5279552;28;20031;-69
2022/10/09 05:24:37;;;;;;;19.50;8.32;;;;;;;1.62;100.00;102366.91;5288663;28;20019;-69
2022/10/09 05:27:08;;;;;;;16.38;7.85;;;;;;;1.62;100.00;102370.41;5277752;28;20077;-69
2022/10/09 05:29:38;;;;;;;14.63;7.43;;;;;;;1.60;100.00;102372.25;5266610;28;20045;-69
2022/10/09 05:32:08;;;;;;;18.50;8.00;;;;;;;1.58;100.00;102363.53;5268449;28;20028;-69
2022/10/09 05:34:39;;;;;;;18.35;8.40;;;;;;;1.57;100.00;102360.97;5267723;28;20081;-69
2022/10/09 05:37:09;;;;;;;22.33;10.35;;;;;;;1.59;100.00;102369.69;5268081;28;20460;-69
2022/10/09 05:39:40;;;;;;;26.15;11.80;;;;;;;1.62;100.00;102366.91;5268670;28;20031;-69
2022/10/09 05:42:10;;;;;;;27.95;11.40;;;;;;;1.65;100.00;102359.66;5257764;28;20060;-69
2022/10/09 05:44:40;;;;;;;23.95;10.90;;;;;;;1.69;100.00;102358.59;5278660;28;20062;-69
2022/10/09 05:47:12;;;;;;;17.58;9.23;;;;;;;1.71;100.00;102364.69;5268159;28;20024;-69
2022/10/09 05:49:42;;;;;;;17.80;9.50;;;;;;;1.74;100.00;102368.97;5267624;28;20418;-69
2022/10/09 05:52:13;;;;;;;18.23;8.57;;;;;;;1.75;100.00;102363.59;5273366;28;20062;-69
2022/10/09 05:54:43;;;;;;;21.88;9.93;;;;;;;1.76;100.00;102364.47;5288450;28;20021;-69
2022/10/09 05:57:14;;;;;;;16.77;8.40;;;;;;;1.80;100.00;102353.63;5262033;28;20028;-70
2022/10/09 05:59:44;;;;;;;19.65;9.23;;;;;;;1.85;100.00;102360.50;5265457;28;20069;-68
2022/10/09 06:02:15;;;;;;;19.30;9.18;;;;;;;1.89;100.00;102359.44;5278029;28;20036;-68
2022/10/09 06:04:45;;;;;;;16.42;8.68;;;;;;;1.91;100.00;102360.22;5274865;28;20102;-68
2022/10/09 06:07:16;;;;;;;18.80;8.75;;;;;;;1.90;100.00;102358.50;5267729;28;20469;-68
2022/10/09 06:09:46;;;;;;;20.67;8.82;;;;;;;1.90;100.00;102358.50;5262943;28;20029;-68
2022/10/09 06:12:17;;;;;;;19.88;9.05;;;;;;;1.92;100.00;102354.00;5288792;28;20027;-68
2022/10/09 06:14:47;;;;;;;22.67;10.18;;;;;;;1.96;100.00;102355.59;5287244;28;20034;-67
2022/10/09 06:17:17;;;;;;;18.02;7.43;;;;;;;1.99;100.00;102360.72;5288486;28;20054;-70
2022/10/09 06:19:48;;;;;;;21.55;8.60;;;;;;;2.01;100.00;102367.66;5287105;28;20439;-69
2022/10/09 06:22:18;;;;;;;21.38;8.90;;;;;;;2.04;100.00;102361.34;5275077;28;20112;-69
2022/10/09 06:24:49;;;;;;;15.32;9.02;;;;;;;2.08;100.00;102365.56;5266226;28;20052;-69
2022/10/09 06:27:19;;;;;;;23.13;9.85;;;;;;;2.15;100.00;102368.75;5259898;28;20020;-70
2022/10/09 06:29:50;;;;;;;19.20;9.50;;;;;;;2.20;100.00;102367.59;5266973;28;20492;-69
2022/10/09 06:32:20;;;;;;;24.02;10.25;;;;;;;2.28;100.00;102369.88;5281716;28;20482;-69
2022/10/09 06:34:51;;;;;;;22.15;9.65;;;;;;;2.35;100.00;102368.63;5284650;28;20102;-69
2022/10/09 06:37:22;;;;;;;20.85;10.20;;;;;;;2.43;100.00;102365.63;5287784;28;20027;-69
2022/10/09 06:39:52;;;;;;;17.88;9.50;;;;;;;2.56;100.00;102364.06;5267137;28;20025;-69
2022/10/09 06:42:23;;;;;;;17.10;9.05;;;;;;;2.67;100.00;102368.84;5263237;28;20020;-69
2022/10/09 06:44:53;;;;;;;19.00;8.98;;;;;;;2.82;100.00;102371.56;5266174;28;20386;-69
2022/10/09 06:47:24;;;;;;;25.02;10.63;;;;;;;2.99;100.00;102367.16;5272528;28;20358;-69
2022/10/09 06:49:56;;;;;;;21.88;10.38;;;;;;;3.28;100.00;102377.09;5274586;28;20020;-69
2022/10/09 06:52:26;;;;;;;25.65;13.30;;;;;;;3.64;100.00;102366.28;5266276;28;20044;-70
2022/10/09 06:54:56;;;;;;;22.38;10.95;;;;;;;4.10;100.00;102374.31;5279330;28;20019;-69
2022/10/09 06:57:27;;;;;;;27.48;12.35;;;;;;;4.57;100.00;102373.41;5267348;28;20081;-70
2022/10/09 06:59:57;;;;;;;21.00;10.05;;;;;;;5.20;100.00;102372.25;5280371;28;20028;-69
2022/10/09 07:02:31;;;;;;;16.67;9.38;;;;;;;5.97;100.00;102362.97;5273457;28;20023;-70
2022/10/09 07:05:02;;;;;;;21.70;8.73;;;;;;;6.93;100.00;102367.22;5262118;28;20023;-70
2022/10/09 07:07:32;;;;;;;12.95;7.63;;;;;;;7.47;100.00;102361.63;5266973;28;20392;-69
2022/10/09 07:10:03;;;;;;;12.38;6.72;;;;;;;7.84;100.00;102350.97;5263828;28;20414;-70
2022/10/09 07:12:35;;;;;;;16.73;7.07;;;;;;;7.89;100.00;102353.31;5279473;28;20114;-70
2022/10/09 07:15:06;;;;;;;15.65;6.80;;;;;;;8.03;100.00;102361.16;5286104;27;20024;-70
2022/10/09 07:17:36;;;;;;;18.75;6.65;;;;;;;8.24;100.00;102353.38;5272620;28;20036;-70
2022/10/09 07:20:07;;;;;;;12.27;6.25;;;;;;;8.55;100.00;102350.13;5265864;28;20031;-70
2022/10/09 07:22:37;;;;;;;16.80;7.00;;;;;;;8.76;100.00;102349.47;5280145;28;20027;-71
2022/10/09 07:25:09;;;;;;;12.02;6.53;;;;;;;8.99;100.00;102356.56;5274893;28;20495;-70
2022/10/09 07:27:40;;;;;;;15.00;7.05;;;;;;;9.25;100.00;102361.72;5273017;28;20046;-70
2022/10/09 07:30:10;;;;;;;15.02;6.82;;;;;;;9.53;100.00;102350.50;5275397;28;20489;-70
2022/10/09 07:32:41;;;;;;;15.20;7.10;;;;;;;9.72;100.00;102357.91;5279308;28;20054;-70
2022/10/09 07:35:11;;;;;;;17.10;7.15;;;;;;;9.99;100.00;102353.94;5269141;28;20059;-70
2022/10/09 07:37:42;;;;;;;14.60;6.05;;;;;;;10.13;100.00;102351.84;5286024;28;20510;-70
2022/10/09 07:40:12;;;;;;;19.35;8.35;;;;;;;10.26;100.00;102345.50;5271138;28;20114;-70
2022/10/09 07:42:43;;;;;;;14.00;6.65;;;;;;;10.45;100.00;102348.34;5265561;28;20162;-70
2022/10/09 07:45:13;;;;;;;18.38;7.28;;;;;;;10.78;100.00;102352.69;5263745;28;20063;-71
2022/10/09 07:47:43;;;;;;;12.52;6.93;;;;;;;10.97;100.00;102360.00;5265831;28;20062;-70
2022/10/09 07:50:14;;;;;;;23.35;7.55;;;;;;;11.13;100.00;102348.78;5267641;28;20048;-69
2022/10/09 07:52:44;;;;;;;16.05;6.95;;;;;;;11.23;100.00;102351.53;5276782;28;20063;-71
2022/10/09 07:55:15;;;;;;;15.35;6.82;;;;;;;11.49;100.00;102350.09;5264883;28;20077;-69
2022/10/09 07:57:45;;;;;;;13.35;6.47;;;;;;;11.72;100.00;102347.19;5265625;28;20397;-70
2022/10/09 08:00:16;;;;;;;15.23;6.63;;;;;;;11.75;100.00;102350.47;5282807;28;20415;-70
2022/10/09 08:02:47;;;;;;;18.00;7.32;;;;;;;11.87;100.00;102348.53;5266829;28;20028;-70
2022/10/09 08:05:17;;;;;;;13.90;6.93;;;;;;;12.15;100.00;102344.22;5268769;28;20084;-70
2022/10/09 08:07:48;;;;;;;13.77;6.30;;;;;;;12.37;100.00;102348.47;5286488;28;20019;-70
2022/10/09 08:10:18;;;;;;;13.77;7.18;;;;;;;12.55;100.00;102337.81;5261971;28;20107;-70
2022/10/09 08:12:49;;;;;;;17.05;7.80;;;;;;;12.66;100.00;102340.38;5280020;28;20072;-70
2022/10/09 08:15:19;;;;;;;13.80;6.72;;;;;;;12.69;100.00;102338.22;5285207;28;20027;-70
2022/10/09 08:17:53;;;;;;;18.15;7.65;;;;;;;12.98;100.00;102340.03;5283906;28;20023;-69
2022/10/09 08:20:24;;;;;;;15.50;6.70;;;;;;;13.29;100.00;102337.13;5275461;28;20038;-69
2022/10/09 08:22:54;;;;;;;16.02;6.70;;;;;;;13.47;100.00;102346.97;5285846;28;20031;-69
2022/10/09 08:25:25;;;;;;;15.23;6.43;;;;;;;13.63;100.00;102335.53;5274216;28;20047;-69
2022/10/09 08:27:55;;;;;;;10.13;6.20;;;;;;;13.64;100.00;102339.09;5262940;28;20404;-70
2022/10/09 08:30:25;;;;;;;11.93;6.22;;;;;;;13.66;100.00;102332.56;5285493;28;20123;-70
2022/10/09 08:32:56;;;;;;;14.38;5.88;;;;;;;13.83;100.00;102335.44;5266313;28;20035;-70
2022/10/09 08:35:28;;;;;;;17.52;5.65;;;;;;;14.00;100.00;102332.75;5263924;28;20024;-70
2022/10/09 08:37:58;;;;;;;16.50;6.13;;;;;;;14.03;100.00;102328.06;5272792;28;20188;-70
2022/10/09 08:40:46;;;;;;;17.48;5.88;;;;;;;14.25;100.00;102317.66;5266665;28;20103;-70
2022/10/09 08:43:27;;;;;;;14.27;5.80;;;;;;;14.68;100.00;102321.44;5266045;28;20028;-70
2022/10/09 08:46:01;;;;;;;13.23;6.32;;;;;;;14.93;100.00;102319.75;5275270;28;20031;-70
2022/10/09 08:48:40;;;;;;;13.40;6.40;;;;;;;15.21;100.00;102322.25;5289133;28;20117;-70
2022/10/09 08:51:25;;;;;;;11.27;5.07;;;;;;;15.44;100.00;102312.56;5278559;28;20028;-70
2022/10/09 08:54:04;;;;;;;14.80;5.70;;;;;;;15.51;100.00;102308.22;5276671;28;20103;-70
2022/10/09 08:56:36;;;;;;;15.75;5.85;;;;;;;15.79;100.00;102310.69;5289997;28;20365;-70
2022/10/09 08:59:10;;;;;;;13.65;5.35;;;;;;;15.89;100.00;102306.00;5289415;28;20032;-70
2022/10/09 09:01:51;;;;;;;11.25;5.47;;;;;;;15.89;100.00;102299.72;5273711;28;20024;-70
2022/10/09 09:04:21;;;;;;;12.98;5.80;;;;;;;16.13;100.00;102298.94;5270597;28;20388;-70
2022/10/09 09:07:37;;;;;;;11.43;5.25;;;;;;;16.13;100.00;102296.22;5271061;28;20035;-70
2022/10/09 09:10:31;;;;;;;17.40;5.80;;;;;;;16.54;100.00;102289.78;5263507;28;20044;-70
2022/10/09 09:13:27;;;;;;;10.52;4.57;;;;;;;16.69;100.00;102292.66;5264818;28;20036;-70
2022/10/09 09:16:30;;;;;;;9.30;3.95;;;;;;;16.90;100.00;102284.00;5276216;28;20047;-71
2022/10/09 09:19:25;;;;;;;11.68;3.65;;;;;;;16.81;100.00;102280.47;5257335;28;20023;-71
2022/10/09 09:21:57;;;;;;;11.35;4.10;;;;;;;16.83;100.00;102278.44;5255991;28;20031;-71
2022/10/09 09:24:38;;;;;;;18.25;4.10;;;;;;;16.50;100.00;102276.75;5269725;28;20031;-71
2022/10/09 09:27:18;;;;;;;8.32;3.35;;;;;;;16.35;100.00;102275.75;5272563;28;20074;-70
2022/10/09 09:30:18;;;;;;;7.25;3.10;;;;;;;16.29;100.00;102269.16;5273642;28;20024;-71
2022/10/09 09:33:12;;;;;;;7.93;3.22;;;;;;;16.11;100.00;102263.88;5275151;28;20043;-71
2022/10/09 09:35:55;;;;;;;12.82;3.22;;;;;;;16.46;100.00;102257.28;5277144;28;20550;-71
2022/10/09 09:38:26;;;;;;;9.05;3.08;;;;;;;16.69;100.00;102260.13;5289550;27;20081;-71
2022/10/09 09:40:57;;;;;;;8.00;3.45;;;;;;;16.55;100.00;102255.41;5255496;28;20020;-71
2022/10/09 09:43:28;;;;;;;8.65;3.08;;;;;;;16.33;100.00;102251.56;5268389;28;20028;-71
2022/10/09 09:45:59;;;;;;;12.75;3.70;;;;;;;16.42;100.00;102249.69;5274601;28;20381;-72
2022/10/09 09:48:40;;;;;;;10.77;3.25;;;;;;;16.54;100.00;102246.44;5287598;28;20104;-71
2022/10/09 09:51:18;;;;;;;16.20;3.03;;;;;;;16.79;100.00;102243.72;5268592;27;20479;-71
2022/10/09 09:53:55;;;;;;;9.45;3.38;;;;;;;16.97;100.00;102233.50;5269765;28;20365;-71
2022/10/09 09:56:54;;;;;;;10.23;3.55;;;;;;;17.41;100.00;102240.25;5288165;28;20099;-71
2022/10/09 09:59:38;;;;;;;8.73;2.92;;;;;;;17.22;100.00;102230.69;5255786;28;20044;-71
2022/10/09 10:02:21;;;;;;;9.20;3.00;;;;;;;17.08;100.00;102224.16;5270392;28;20022;-71
2022/10/09 10:05:00;;;;;;;9.82;3.38;;;;;;;16.97;100.00;102222.66;5262730;28;20476;-71
2022/10/09 10:07:35;;;;;;;8.68;3.30;;;;;;;17.00;100.00;102214.16;5288548;28;20094;-71
2022/10/09 10:10:14;;;;;;;10.07;3.10;;;;;;;17.04;100.00;102217.38;5269718;28;20020;-71
2022/10/09 10:12:56;;;;;;;10.98;3.40;;;;;;;16.89;100.00;102216.41;5267727;28;20430;-71
2022/10/09 10:15:30;;;;;;;8.18;3.55;;;;;;;16.69;100.00;102213.22;5266578;28;20027;-71
2022/10/09 10:18:11;;;;;;;10.38;3.38;;;;;;;16.77;100.00;102211.38;5267357;28;20027;-71
2022/10/09 10:20:45;;;;;;;9.80;3.05;;;;;;;16.86;100.00;102200.50;5267184;28;20416;-71
2022/10/09 10:23:28;;;;;;;10.18;3.40;;;;;;;16.99;100.00;102206.22;5281080;28;20028;-71
2022/10/09 10:26:04;;;;;;;9.75;3.58;;;;;;;16.83;100.00;102194.41;5282385;28;20073;-71
2022/10/09 10:28:46;;;;;;;14.55;3.95;;;;;;;16.93;100.00;102194.22;5274448;28;20103;-71
2022/10/09 10:31:35;;;;;;;8.50;2.72;;;;;;;16.91;100.00;102195.41;5288080;28;20488;-71
2022/10/09 10:34:14;;;;;;;9.75;3.40;;;;;;;16.89;100.00;102187.44;5286174;28;20019;-71
2022/10/09 10:36:46;;;;;;;7.00;2.90;;;;;;;16.80;100.00;102183.91;5267221;28;20058;-72
2022/10/09 10:39:41;;;;;;;10.07;3.40;;;;;;;16.83;100.00;102174.59;5273722;28;20020;-71
2022/10/09 10:42:46;;;;;;;11.93;4.38;;;;;;;16.92;100.00;102175.41;5253524;28;20040;-71
2022/10/09 10:45:37;;;;;;;8.23;3.33;;;;;;;16.88;100.00;102171.38;5271032;28;20039;-71
2022/10/09 10:48:11;;;;;;;9.38;3.72;;;;;;;16.72;100.00;102166.88;5267015;28;20024;-71
2022/10/09 10:50:57;;;;;;;7.43;3.43;;;;;;;16.74;100.00;102160.22;5266534;28;20059;-71
2022/10/09 10:54:09;;;;;;;15.38;4.50;;;;;;;16.70;100.00;102156.16;5266887;28;20024;-71
2022/10/09 10:56:47;;;;;;;8.80;4.20;;;;;;;16.85;100.00;102160.88;5243770;28;20029;-71
2022/10/09 10:59:29;;;;;;;13.02;3.15;;;;;;;16.91;100.00;102149.31;5238052;28;20036;-73
2022/10/09 11:02:35;;;;;;;9.45;3.92;;;;;;;16.89;100.00;102151.38;5248596;28;20046;-73
2022/10/09 11:05:12;;;;;;;12.47;4.40;;;;;;;16.81;100.00;102139.53;5261372;28;20550;-72
2022/10/09 11:07:51;;;;;;;6.40;3.22;;;;;;;16.80;100.00;102135.13;5278253;28;20331;-72
2022/10/09 11:11:09;;;;;;;10.30;3.60;;;;;;;16.85;100.00;102128.34;5262093;28;20040;-72
2022/10/09 11:13:55;;;;;;;10.57;3.35;;;;;;;16.76;100.00;102131.09;5264184;28;20036;-73
2022/10/09 11:16:34;;;;;;;7.50;3.20;;;;;;;16.90;100.00;102118.66;5265906;28;20031;-73
2022/10/09 11:19:21;;;;;;;7.38;3.13;;;;;;;17.04;100.00;102117.06;5277732;28;20038;-72
2022/10/09 11:22:00;;;;;;;9.02;3.15;;;;;;;17.30;100.00;102109.44;5261836;28;20027;-73
2022/10/09 11:24:55;;;;;;;6.57;2.78;;;;;;;17.53;100.00;102114.03;5272839;28;20020;-72
2022/10/09 11:27:38;;;;;;;10.52;2.63;;;;;;;17.27;100.00;102106.22;5271749;28;20459;-73
2022/10/09 11:30:12;;;;;;;8.32;2.72;;;;;;;17.12;100.00;102102.59;5277267;28;20020;-72
2022/10/09 11:33:14;;;;;;;15.20;3.15;;;;;;;17.14;100.00;102100.56;5284186;28;20032;-72
2022/10/09 11:35:59;;;;;;;11.13;2.60;;;;;;;17.24;100.00;102093.91;5269570;28;20097;-73
2022/10/09 11:38:37;;;;;;;6.05;2.80;;;;;;;17.12;100.00;102095.34;5277450;28;20476;-72
2022/10/09 11:41:07;;;;;;;11.50;3.40;;;;;;;17.19;100.00;102079.19;5258249;28;20127;-72
2022/10/09 11:44:15;;;;;;;9.25;2.78;;;;;;;17.50;100.00;102081.84;5260636;28;20028;-73
2022/10/09 11:47:06;;;;;;;8.35;3.15;;;;;;;17.81;100.00;102076.34;5273149;28;20173;-73
2022/10/09 11:49:55;;;;;;;12.23;2.85;;;;;;;18.07;100.00;102076.78;5278605;28;20035;-72